Terminal Aerodrome Forecast
Issued by NWS Portland, ME

Home | Current Version | Previous Version | Text Only | Print | Product List | Glossary On
Versions: 1 2 3 4 5 6 7 8 9 10 11 12 13 14 15 16 17 18
000
FTUS41 KGYX 311736
TAFCON
TAF
KCON 311736Z 3118/0118 23006KT P6SM BKN200
     FM010000 VRB03KT P6SM BKN050
      TEMPO 0106/0110 5SM -SHRA BR OVC030
     FM011300 33005KT P6SM BKN050=

USA.gov is the U.S. government's official web portal to all federal, state and local government web resources and services.